sensor_id;sensor_type;location;lat;lon;timestamp;P1;durP1;ratioP1;P2;durP2;ratioP2
34302;SDS011;20785;50.020;19.916;2022-07-23T00:58:10;10.98;;;8.08;;
34302;SDS011;20785;50.020;19.916;2022-07-23T01:40:19;10.78;;;8.38;;
34302;SDS011;20785;50.020;19.916;2022-07-23T01:46:56;13.30;;;8.63;;
34302;SDS011;20785;50.020;19.916;2022-07-23T02:49:42;16.23;;;9.98;;
34302;SDS011;20785;50.020;19.916;2022-07-23T02:55:57;15.30;;;10.13;;
34302;SDS011;20785;50.020;19.916;2022-07-23T03:02:00;13.45;;;9.95;;
34302;SDS011;20785;50.020;19.916;2022-07-23T03:11:17;11.70;;;8.93;;
34302;SDS011;20785;50.020;19.916;2022-07-23T04:05:04;13.90;;;9.55;;
34302;SDS011;20785;50.020;19.916;2022-07-23T04:18:19;13.78;;;9.35;;
34302;SDS011;20785;50.020;19.916;2022-07-23T05:14:27;14.87;;;8.95;;
34302;SDS011;20785;50.020;19.916;2022-07-23T15:12:24;12.07;;;9.50;;
34302;SDS011;20785;50.020;19.916;2022-07-23T21:07:24;12.93;;;7.53;;
34302;SDS011;20785;50.020;19.916;2022-07-23T21:13:36;20.85;;;15.48;;
34302;SDS011;20785;50.020;19.916;2022-07-23T21:19:37;22.70;;;16.67;;
34302;SDS011;20785;50.020;19.916;2022-07-23T21:25:38;30.23;;;23.10;;
34302;SDS011;20785;50.020;19.916;2022-07-23T21:31:39;25.52;;;19.30;;
34302;SDS011;20785;50.020;19.916;2022-07-23T21:37:40;23.10;;;17.60;;
34302;SDS011;20785;50.020;19.916;2022-07-23T21:43:43;22.93;;;17.10;;
34302;SDS011;20785;50.020;19.916;2022-07-23T21:49:44;22.27;;;16.40;;
34302;SDS011;20785;50.020;19.916;2022-07-23T21:55:45;22.22;;;15.08;;
34302;SDS011;20785;50.020;19.916;2022-07-23T22:01:46;21.17;;;16.50;;
34302;SDS011;20785;50.020;19.916;2022-07-23T22:07:47;22.07;;;17.45;;
34302;SDS011;20785;50.020;19.916;2022-07-23T22:13:51;23.75;;;15.98;;
34302;SDS011;20785;50.020;19.916;2022-07-23T22:19:52;25.48;;;15.90;;
34302;SDS011;20785;50.020;19.916;2022-07-23T22:25:52;20.17;;;15.93;;
34302;SDS011;20785;50.020;19.916;2022-07-23T22:31:53;24.65;;;18.30;;
34302;SDS011;20785;50.020;19.916;2022-07-23T22:37:54;23.22;;;17.98;;
34302;SDS011;20785;50.020;19.916;2022-07-23T22:43:55;23.02;;;16.93;;
34302;SDS011;20785;50.020;19.916;2022-07-23T22:49:56;20.27;;;15.80;;
34302;SDS011;20785;50.020;19.916;2022-07-23T22:55:57;20.08;;;15.58;;
34302;SDS011;20785;50.020;19.916;2022-07-23T23:01:58;21.65;;;16.17;;
34302;SDS011;20785;50.020;19.916;2022-07-23T23:07:58;19.25;;;15.03;;
34302;SDS011;20785;50.020;19.916;2022-07-23T23:14:02;21.80;;;14.65;;
34302;SDS011;20785;50.020;19.916;2022-07-23T23:20:02;20.20;;;15.23;;
34302;SDS011;20785;50.020;19.916;2022-07-23T23:26:03;18.60;;;15.32;;
34302;SDS011;20785;50.020;19.916;2022-07-23T23:32:04;18.60;;;14.53;;
34302;SDS011;20785;50.020;19.916;2022-07-23T23:38:05;17.12;;;13.95;;
34302;SDS011;20785;50.020;19.916;2022-07-23T23:44:06;19.67;;;15.03;;
34302;SDS011;20785;50.020;19.916;2022-07-23T23:50:07;18.80;;;14.10;;
34302;SDS011;20785;50.020;19.916;2022-07-23T23:56:08;18.62;;;14.93;;
